Terminal Aerodrome Forecast
Issued by NWS

Home | Current Version | Previous Version | Text Only | Print | Product List | Glossary On
Versions: 1 2 3 4 5 6 7 8 9 10 11 12 13 14 15 16 17 18
000
FTUS43 KGRR 201100
TAFLAN
TAF
KLAN 201127Z 2012/2112 20009KT P6SM FEW060 FEW070
     FM201500 25007KT P6SM VCTS SCT035CB BKN070
     FM202100 30008KT P6SM OVC025=

USA.gov is the U.S. government's official web portal to all federal, state and local government web resources and services.